Time;durP1;ratioP1;P1;durP2;ratioP2;P2;SDS_P1;SDS_P2;PMS_P1;PMS_P2;Temp;Humidity;BMP_temperature;BMP_pressure;BME280_temperature;BME280_humidity;BME280_pressure;Samples;Min_cycle;Max_cycle;Signal;HPM_P1;HPM_P2
2022/10/09 00:01:06;;;;;;;6.88;3.55;;;;;;;14.89;68.82;93321.59;2051306;70;20483;-78
2022/10/09 00:03:32;;;;;;;6.60;3.97;;;;;;;14.93;68.77;93318.22;2051251;70;20153;-78
2022/10/09 00:05:58;;;;;;;9.18;3.92;;;;;;;14.88;69.18;93322.19;2051399;70;20232;-77
2022/10/09 00:08:24;;;;;;;5.93;3.58;;;;;;;14.74;70.19;93322.88;2051187;70;20150;-77
2022/10/09 00:10:50;;;;;;;5.20;3.58;;;;;;;14.51;70.79;93320.16;2050645;70;20169;-78
2022/10/09 00:13:16;;;;;;;7.15;3.58;;;;;;;14.77;68.89;93320.19;2051352;70;20189;-77
2022/10/09 00:15:44;;;;;;;7.40;3.40;;;;;;;14.85;68.35;93326.31;2051307;69;20190;-77
2022/10/09 00:18:11;;;;;;;8.82;3.60;;;;;;;14.82;67.93;93319.03;2050787;70;20186;-77
2022/10/09 00:20:39;;;;;;;7.72;3.95;;;;;;;14.77;68.04;93318.06;2051278;70;20142;-78
2022/10/09 00:23:05;;;;;;;6.13;3.25;;;;;;;14.82;67.86;93316.94;2051084;70;20297;-76
2022/10/09 00:25:34;;;;;;;7.55;3.40;;;;;;;14.77;67.88;93320.91;2051629;69;20336;-78
2022/10/09 00:28:01;;;;;;;6.38;3.05;;;;;;;14.72;67.40;93314.28;2051604;70;20665;-77
2022/10/09 00:30:27;;;;;;;8.43;3.38;;;;;;;14.62;68.21;93325.06;2048138;70;20141;-78
2022/10/09 00:32:54;;;;;;;6.05;3.38;;;;;;;14.62;68.52;93322.22;2051588;69;20147;-77
2022/10/09 00:35:20;;;;;;;5.95;3.13;;;;;;;14.58;68.12;93321.25;2051686;70;20926;-77
2022/10/09 00:37:46;;;;;;;6.45;3.03;;;;;;;14.48;69.44;93324.28;2051094;69;20192;-76
2022/10/09 00:40:11;;;;;;;5.18;3.25;;;;;;;14.65;67.99;93318.13;2047839;70;20173;-77
2022/10/09 00:42:37;;;;;;;8.43;3.28;;;;;;;14.63;68.31;93329.38;2051128;70;20161;-78
2022/10/09 00:45:03;;;;;;;5.72;3.38;;;;;;;14.71;67.56;93329.09;2051049;70;20139;-77
2022/10/09 00:47:32;;;;;;;8.13;3.47;;;;;;;14.66;67.86;93321.69;2051343;70;20652;-77
2022/10/09 00:50:15;;;;;;;7.80;3.13;;;;;;;14.64;68.88;93318.75;2051541;70;20585;-77
2022/10/09 00:52:43;;;;;;;5.03;2.92;;;;;;;14.57;68.54;93317.69;2051395;70;20233;-78
2022/10/09 00:55:11;;;;;;;6.32;3.20;;;;;;;14.60;67.57;93315.69;2051498;70;20176;-78
2022/10/09 00:57:39;;;;;;;6.00;3.05;;;;;;;14.63;68.04;93314.47;2051376;70;20157;-78
2022/10/09 01:00:09;;;;;;;5.22;2.88;;;;;;;14.62;67.37;93319.41;2051410;70;20154;-76
2022/10/09 01:02:35;;;;;;;5.25;2.90;;;;;;;14.24;69.69;93317.91;2051443;70;20166;-78
2022/10/09 01:05:02;;;;;;;5.55;2.60;;;;;;;14.38;68.21;93309.50;2051250;70;20169;-78
2022/10/09 01:07:41;;;;;;;6.40;2.67;;;;;;;14.42;68.04;93304.06;2048208;70;20118;-77
2022/10/09 01:10:25;;;;;;;5.30;2.45;;;;;;;14.47;67.22;93303.66;2051536;70;20575;-76
2022/10/09 01:13:05;;;;;;;6.88;2.70;;;;;;;14.36;68.09;93306.56;2051378;70;20263;-76
2022/10/09 01:15:46;;;;;;;7.15;2.97;;;;;;;14.36;68.07;93309.38;2047335;70;20146;-75
2022/10/09 01:18:39;;;;;;;4.35;2.50;;;;;;;14.34;68.11;93298.69;2047926;70;20173;-75
2022/10/09 01:21:32;;;;;;;5.90;2.83;;;;;;;14.43;67.06;93305.53;2047429;70;20173;-77
2022/10/09 01:24:04;;;;;;;4.20;2.63;;;;;;;14.37;67.26;93299.53;2047918;70;20225;-77
2022/10/09 01:26:49;;;;;;;4.35;2.38;;;;;;;14.08;68.63;93303.56;2047925;70;20143;-77
2022/10/09 01:29:19;;;;;;;7.15;2.90;;;;;;;14.18;68.40;93306.97;2048157;70;20170;-78
2022/10/09 01:31:48;;;;;;;5.10;2.85;;;;;;;14.24;67.20;93296.00;2050209;70;20209;-78
2022/10/09 01:34:17;;;;;;;5.25;2.65;;;;;;;14.28;66.96;93301.16;2048147;70;20181;-76
2022/10/09 01:36:45;;;;;;;5.03;2.63;;;;;;;14.29;66.67;93296.97;2048202;70;20157;-76
2022/10/09 01:39:18;;;;;;;6.22;2.72;;;;;;;14.23;67.43;93294.53;2047413;70;20506;-76
2022/10/09 01:41:47;;;;;;;5.28;2.70;;;;;;;14.24;67.87;93303.75;2047879;70;20167;-74
2022/10/09 01:44:17;;;;;;;5.22;2.63;;;;;;;14.27;66.86;93313.13;2047731;70;20254;-76
2022/10/09 01:46:43;;;;;;;9.43;2.58;;;;;;;14.23;66.44;93305.84;2047896;70;20139;-76
2022/10/09 01:49:40;;;;;;;6.40;2.97;;;;;;;14.18;67.85;93300.59;2047556;70;20147;-75
2022/10/09 01:52:35;;;;;;;4.35;2.35;;;;;;;14.13;67.58;93296.78;2045217;70;20154;-77
2022/10/09 01:55:04;;;;;;;9.13;3.00;;;;;;;14.12;67.74;93294.59;2047317;70;20607;-77
2022/10/09 01:57:45;;;;;;;5.22;2.70;;;;;;;13.87;68.71;93298.81;2047785;70;20600;-77
2022/10/09 02:00:14;;;;;;;7.50;2.70;;;;;;;13.97;67.94;93296.59;2048027;70;20151;-77
2022/10/09 02:02:42;;;;;;;6.00;2.95;;;;;;;13.93;68.73;93302.03;2048036;70;20157;-75
2022/10/09 02:05:22;;;;;;;7.78;2.97;;;;;;;14.05;67.72;93293.47;2048119;70;20169;-76
2022/10/09 02:07:48;;;;;;;4.80;3.13;;;;;;;13.84;68.79;93293.69;2048364;70;20151;-77
2022/10/09 02:10:17;;;;;;;5.35;3.15;;;;;;;13.57;71.51;93289.31;2048406;70;20127;-77
2022/10/09 02:12:48;;;;;;;7.15;2.95;;;;;;;13.91;68.15;93292.66;2048408;70;20151;-77
2022/10/09 02:15:15;;;;;;;8.63;3.10;;;;;;;13.86;68.99;93288.13;2050780;70;20245;-77
2022/10/09 02:17:46;;;;;;;5.38;3.20;;;;;;;13.74;69.76;93290.97;2051643;70;20206;-77
2022/10/09 02:20:15;;;;;;;7.05;3.55;;;;;;;13.72;68.04;93285.22;2051828;70;20146;-77
2022/10/09 02:22:41;;;;;;;8.35;3.55;;;;;;;13.88;67.28;93279.75;2051603;70;20236;-76
2022/10/09 02:25:07;;;;;;;6.63;3.38;;;;;;;13.79;68.52;93289.13;2051562;69;20602;-76
2022/10/09 02:27:34;;;;;;;5.55;2.88;;;;;;;13.79;68.90;93286.28;2048293;70;20193;-76
2022/10/09 02:30:01;;;;;;;8.93;3.33;;;;;;;13.91;66.54;93284.91;2051489;70;20229;-77
2022/10/09 02:32:28;;;;;;;8.73;3.28;;;;;;;13.79;67.70;93284.22;2051539;70;20226;-75
2022/10/09 02:34:53;;;;;;;7.07;3.30;;;;;;;13.67;69.52;93286.34;2052107;70;20229;-76
2022/10/09 02:37:19;;;;;;;6.55;3.53;;;;;;;13.54;70.54;93290.53;2051629;70;20142;-76
2022/10/09 02:39:45;;;;;;;6.57;3.65;;;;;;;13.18;73.15;93286.22;2051511;70;20192;-78
2022/10/09 02:42:10;;;;;;;7.53;3.88;;;;;;;13.39;70.62;93286.13;2051659;70;20158;-76
2022/10/09 02:44:36;;;;;;;4.78;3.17;;;;;;;13.48;70.29;93287.34;2053921;70;20270;-77
2022/10/09 02:47:01;;;;;;;7.05;3.63;;;;;;;13.56;69.32;93279.34;2051135;70;20150;-76
2022/10/09 02:49:27;;;;;;;8.98;3.72;;;;;;;13.65;69.15;93280.53;2051753;70;20189;-76
2022/10/09 02:51:53;;;;;;;8.63;3.58;;;;;;;13.53;70.29;93274.19;2051729;70;20151;-76
2022/10/09 02:54:19;;;;;;;7.32;3.53;;;;;;;13.59;67.79;93286.59;2051736;70;20139;-76
2022/10/09 02:56:44;;;;;;;6.30;3.28;;;;;;;13.55;68.47;93288.44;2051633;70;20226;-77
2022/10/09 02:59:10;;;;;;;9.85;3.70;;;;;;;13.69;67.78;93281.53;2051709;70;20585;-77
2022/10/09 03:01:35;;;;;;;10.02;3.80;;;;;;;13.37;70.16;93285.25;2051539;70;20154;-75
2022/10/09 03:04:01;;;;;;;8.52;3.67;;;;;;;13.48;69.56;93299.41;2048404;70;20177;-76
2022/10/09 03:06:28;;;;;;;7.25;3.28;;;;;;;13.62;67.99;93296.69;2051666;70;20652;-76
2022/10/09 03:08:54;;;;;;;7.50;3.45;;;;;;;13.40;70.20;93290.44;2050994;70;20162;-77
2022/10/09 03:11:22;;;;;;;6.90;3.95;;;;;;;13.45;69.41;93294.97;2048396;70;20234;-76
2022/10/09 03:13:48;;;;;;;9.30;3.47;;;;;;;13.66;66.95;93291.25;2051532;70;20146;-76
2022/10/09 03:16:17;;;;;;;6.75;3.50;;;;;;;13.63;68.38;93286.09;2051406;70;20142;-77
2022/10/09 03:18:44;;;;;;;7.93;4.20;;;;;;;13.58;68.39;93290.78;2051352;70;20160;-77
2022/10/09 03:21:13;;;;;;;9.32;4.03;;;;;;;13.59;68.50;93291.50;2051432;70;20141;-77
2022/10/09 03:23:39;;;;;;;8.05;4.00;;;;;;;13.54;69.24;93287.72;2051436;70;20582;-77
2022/10/09 03:26:08;;;;;;;10.88;4.20;;;;;;;13.54;68.10;93289.81;2051555;70;20283;-76
2022/10/09 03:28:36;;;;;;;6.68;4.03;;;;;;;13.35;71.18;93287.97;2051534;70;20154;-77
2022/10/09 03:31:02;;;;;;;6.13;3.60;;;;;;;13.38;69.76;93292.41;2051430;70;20153;-78
2022/10/09 03:33:28;;;;;;;8.10;4.05;;;;;;;13.45;69.08;93288.56;2053695;70;20149;-77
2022/10/09 03:35:53;;;;;;;7.05;4.15;;;;;;;13.44;70.18;93298.44;2051546;70;20150;-76
2022/10/09 03:38:19;;;;;;;8.18;4.13;;;;;;;13.45;69.97;93289.31;2050927;70;20221;-76
2022/10/09 03:40:44;;;;;;;11.73;4.97;;;;;;;13.37;71.19;93293.75;2051514;70;20170;-76
2022/10/09 03:43:10;;;;;;;6.88;4.50;;;;;;;13.45;68.55;93294.22;2051565;70;20597;-75
2022/10/09 03:45:42;;;;;;;9.25;4.40;;;;;;;13.48;68.63;93281.69;2051414;70;20156;-76
2022/10/09 03:48:12;;;;;;;10.15;4.72;;;;;;;13.44;69.67;93289.94;2051720;70;20134;-76
2022/10/09 03:50:39;;;;;;;9.15;5.05;;;;;;;13.37;69.74;93288.09;2051504;70;20134;-76
2022/10/09 03:53:06;;;;;;;9.63;5.25;;;;;;;13.52;68.17;93286.88;2051590;70;20467;-77
2022/10/09 03:55:32;;;;;;;8.70;4.80;;;;;;;13.45;69.29;93291.41;2051453;70;20153;-76
2022/10/09 03:57:58;;;;;;;10.57;4.88;;;;;;;13.53;68.88;93291.91;2051494;70;20138;-77
2022/10/09 04:00:23;;;;;;;8.98;4.95;;;;;;;13.44;70.71;93287.09;2051397;70;20196;-76
2022/10/09 04:02:50;;;;;;;8.77;5.70;;;;;;;13.40;71.07;93287.59;2051382;70;20650;-76
2022/10/09 04:05:15;;;;;;;8.13;4.95;;;;;;;13.41;71.05;93288.34;2051374;70;20182;-75
2022/10/09 04:07:41;;;;;;;8.85;5.53;;;;;;;13.48;70.03;93295.84;2051404;70;20217;-75
2022/10/09 04:10:07;;;;;;;8.27;5.53;;;;;;;13.43;70.87;93280.72;2051406;70;20581;-75
2022/10/09 04:12:32;;;;;;;14.73;5.55;;;;;;;13.40;71.35;93279.13;2051353;70;20165;-76
2022/10/09 04:14:58;;;;;;;12.48;6.43;;;;;;;13.43;70.75;93280.00;2051201;70;20154;-76
2022/10/09 04:17:24;;;;;;;7.93;5.03;;;;;;;13.44;71.08;93284.28;2051376;70;20609;-76
2022/10/09 04:19:49;;;;;;;9.05;4.93;;;;;;;13.45;70.47;93275.16;2051349;70;20606;-75
2022/10/09 04:22:15;;;;;;;9.18;5.18;;;;;;;13.40;71.48;93281.22;2051378;70;20181;-75
2022/10/09 04:24:40;;;;;;;8.57;4.82;;;;;;;13.42;70.92;93284.16;2048152;70;20191;-75
2022/10/09 04:27:06;;;;;;;8.25;4.30;;;;;;;13.47;69.96;93274.56;2050674;70;20233;-76
2022/10/09 04:29:32;;;;;;;10.98;4.55;;;;;;;13.49;69.48;93286.00;2051293;70;20165;-77
2022/10/09 04:31:57;;;;;;;7.65;4.43;;;;;;;13.49;69.39;93280.34;2051243;70;20166;-75
2022/10/09 04:34:23;;;;;;;8.07;4.43;;;;;;;13.48;70.11;93282.44;2051624;70;20590;-73
2022/10/09 04:36:48;;;;;;;8.00;4.63;;;;;;;13.44;70.20;93282.19;2051495;70;20146;-75
2022/10/09 04:39:14;;;;;;;14.00;4.75;;;;;;;13.43;70.75;93277.16;2051303;70;20134;-76
2022/10/09 04:41:40;;;;;;;8.20;4.60;;;;;;;13.40;71.12;93278.38;2051400;70;20133;-76
2022/10/09 04:44:06;;;;;;;10.98;4.65;;;;;;;13.36;71.96;93269.66;2050868;70;20157;-76
2022/10/09 04:46:31;;;;;;;9.30;5.15;;;;;;;13.37;71.81;93273.94;2051267;70;20517;-75
2022/10/09 04:48:57;;;;;;;10.45;4.82;;;;;;;13.40;70.55;93267.06;2051303;70;20157;-76
2022/10/09 04:51:22;;;;;;;7.18;4.10;;;;;;;13.42;70.38;93275.66;2048053;70;20266;-74
2022/10/09 04:53:48;;;;;;;7.70;4.05;;;;;;;13.43;70.06;93271.50;2051394;70;20153;-74
2022/10/09 04:56:16;;;;;;;8.10;4.25;;;;;;;13.40;70.07;93276.28;2051360;70;20142;-75
2022/10/09 04:58:43;;;;;;;9.25;4.40;;;;;;;13.41;70.24;93277.03;2051398;70;20149;-76
2022/10/09 05:01:13;;;;;;;9.20;4.10;;;;;;;13.39;70.22;93280.47;2047895;70;20150;-76
2022/10/09 05:03:38;;;;;;;9.40;3.67;;;;;;;13.38;70.02;93278.28;2051286;70;20586;-77
2022/10/09 05:06:06;;;;;;;9.73;4.20;;;;;;;13.33;69.74;93277.28;2051402;70;20162;-77
2022/10/09 05:08:33;;;;;;;8.70;4.25;;;;;;;13.33;69.69;93273.72;2051246;70;20631;-76
2022/10/09 05:11:00;;;;;;;8.57;4.20;;;;;;;13.23;71.45;93273.84;2051478;70;20572;-76
2022/10/09 05:13:29;;;;;;;6.53;4.20;;;;;;;13.30;70.43;93275.69;2051363;70;20594;-76
2022/10/09 05:15:54;;;;;;;8.43;4.32;;;;;;;13.28;71.14;93278.38;2050558;70;20248;-75
2022/10/09 05:18:20;;;;;;;7.28;4.05;;;;;;;13.31;70.68;93271.50;2051304;70;20160;-76
2022/10/09 05:20:46;;;;;;;6.97;4.57;;;;;;;13.31;71.26;93282.06;2051387;70;20154;-75
2022/10/09 05:23:11;;;;;;;11.75;4.93;;;;;;;13.31;71.63;93282.81;2048061;70;20570;-75
2022/10/09 05:25:37;;;;;;;10.70;4.88;;;;;;;13.31;71.33;93270.78;2051364;70;20478;-76
2022/10/09 05:28:03;;;;;;;8.15;4.82;;;;;;;13.24;71.92;93272.50;2051244;70;20479;-76
2022/10/09 05:30:29;;;;;;;8.90;4.78;;;;;;;13.26;71.20;93269.78;2047897;70;20281;-77
2022/10/09 05:32:54;;;;;;;8.40;5.40;;;;;;;13.30;70.90;93283.44;2051520;70;20214;-76
2022/10/09 05:35:20;;;;;;;9.90;5.30;;;;;;;13.28;70.92;93278.38;2051214;70;20154;-77
2022/10/09 05:37:45;;;;;;;7.95;4.63;;;;;;;13.26;71.52;93281.09;2051160;70;20261;-77
2022/10/09 05:40:12;;;;;;;8.13;4.75;;;;;;;13.34;70.24;93278.03;2051201;70;20172;-77
2022/10/09 05:42:38;;;;;;;9.90;5.07;;;;;;;13.30;70.33;93272.13;2048708;70;20525;-76
2022/10/09 05:45:04;;;;;;;12.80;4.60;;;;;;;13.32;69.96;93275.78;2052159;70;20142;-76
2022/10/09 05:47:30;;;;;;;11.70;4.75;;;;;;;13.29;71.32;93279.88;2052297;70;20189;-76
2022/10/09 05:49:55;;;;;;;8.32;4.53;;;;;;;13.31;70.82;93271.50;2052402;70;20594;-76
2022/10/09 05:52:21;;;;;;;9.35;4.45;;;;;;;13.30;70.41;93272.88;2052303;70;20154;-75
2022/10/09 05:54:46;;;;;;;8.45;4.55;;;;;;;13.30;70.31;93272.13;2052130;70;20589;-76
2022/10/09 05:57:12;;;;;;;8.75;4.47;;;;;;;13.31;68.94;93268.69;2052105;70;20230;-76
2022/10/09 05:59:37;;;;;;;8.65;4.90;;;;;;;13.32;69.76;93272.25;2052181;70;20232;-76
2022/10/09 06:02:03;;;;;;;12.30;4.78;;;;;;;13.30;71.34;93266.47;2052100;70;20154;-76
2022/10/09 06:04:29;;;;;;;14.43;5.05;;;;;;;13.28;72.43;93269.91;2052153;70;20202;-76
2022/10/09 06:06:54;;;;;;;7.97;4.68;;;;;;;13.31;71.18;93271.50;2052150;70;20142;-76
2022/10/09 06:09:22;;;;;;;8.98;4.72;;;;;;;13.32;69.29;93277.91;2052239;70;20192;-77
2022/10/09 06:11:48;;;;;;;11.88;6.72;;;;;;;13.40;68.34;93273.47;2052142;70;20138;-77
2022/10/09 06:14:13;;;;;;;12.55;5.80;;;;;;;13.38;70.26;93283.94;2052135;70;20589;-76
2022/10/09 06:16:41;;;;;;;11.00;6.57;;;;;;;13.26;71.90;93283.19;2052024;70;20143;-75
2022/10/09 06:19:10;;;;;;;11.23;6.38;;;;;;;13.32;70.85;93284.28;2052129;70;20502;-75
2022/10/09 06:21:36;;;;;;;12.80;6.38;;;;;;;13.26;70.87;93283.19;2052182;70;20569;-77
2022/10/09 06:24:03;;;;;;;10.50;4.88;;;;;;;12.87;73.78;93290.03;2052426;70;20161;-75
2022/10/09 06:26:29;;;;;;;10.80;5.03;;;;;;;13.00;73.53;93291.50;2052107;70;20162;-76
2022/10/09 06:28:56;;;;;;;8.93;5.35;;;;;;;13.12;72.83;93297.19;2052253;70;20157;-75
2022/10/09 06:31:24;;;;;;;9.70;5.85;;;;;;;13.20;71.12;93294.84;2052075;69;20265;-75
2022/10/09 06:33:51;;;;;;;12.68;5.47;;;;;;;13.17;70.13;93304.56;2052246;69;20154;-76
2022/10/09 06:36:18;;;;;;;9.15;5.10;;;;;;;13.09;71.39;93293.47;2052071;70;20220;-76
2022/10/09 06:38:44;;;;;;;10.82;5.22;;;;;;;13.25;69.98;93307.16;2052115;70;20146;-74
2022/10/09 06:41:12;;;;;;;9.43;5.78;;;;;;;13.24;70.12;93303.59;2052099;70;20145;-76
2022/10/09 06:43:39;;;;;;;10.85;6.07;;;;;;;13.22;69.93;93311.94;2052894;70;20669;-76
2022/10/09 06:46:13;;;;;;;15.15;5.97;;;;;;;13.27;70.47;93308.00;2052042;70;20146;-76
2022/10/09 06:48:39;;;;;;;9.73;6.95;;;;;;;13.20;70.75;93314.63;2052308;70;20242;-76
2022/10/09 06:51:06;;;;;;;13.82;9.15;;;;;;;13.28;69.41;93322.88;2052247;70;20261;-76
2022/10/09 06:54:00;;;;;;;16.15;8.73;;;;;;;13.17;70.89;93313.78;2051545;69;20246;-76
2022/10/09 06:56:26;;;;;;;;;;;;;;;13.30;69.69;93318.09;2051006;70;20150;-77
2022/10/09 06:58:52;;;;;;;15.70;8.88;;;;;;;13.25;69.82;93322.03;2051403;70;20074;-76
2022/10/09 07:01:20;;;;;;;13.43;7.50;;;;;;;13.27;69.53;93318.59;2051321;70;20516;-75
2022/10/09 07:03:51;;;;;;;13.60;7.68;;;;;;;13.32;69.03;93325.97;2051559;70;20248;-76
2022/10/09 07:06:19;;;;;;;13.35;6.82;;;;;;;12.94;72.84;93317.31;2051643;70;20206;-76
2022/10/09 07:08:50;;;;;;;12.40;6.65;;;;;;;12.94;73.08;93322.22;2051615;70;20222;-76
2022/10/09 07:11:21;;;;;;;11.52;7.15;;;;;;;13.23;71.40;93325.47;2051620;70;20142;-76
2022/10/09 07:13:49;;;;;;;13.45;8.07;;;;;;;13.27;70.98;93327.06;2051506;70;20653;-74
2022/10/09 07:16:19;;;;;;;16.02;8.93;;;;;;;13.31;71.61;93328.06;2053644;70;20642;-74
2022/10/09 07:18:45;;;;;;;16.08;9.00;;;;;;;13.37;70.75;93331.25;2051543;70;20223;-74
2022/10/09 07:21:10;;;;;;;15.10;8.52;;;;;;;13.30;72.20;93329.41;2051512;70;20150;-76
2022/10/09 07:23:36;;;;;;;13.25;7.95;;;;;;;13.37;69.64;93328.41;2051488;70;20202;-76
2022/10/09 07:26:09;;;;;;;15.65;8.20;;;;;;;13.30;71.91;93331.50;2048374;70;20170;-76
2022/10/09 07:28:35;;;;;;;12.63;8.15;;;;;;;13.40;70.78;93340.59;2051537;70;20142;-76
2022/10/09 07:31:04;;;;;;;13.05;7.15;;;;;;;13.03;72.87;93335.50;2051435;70;20130;-75
2022/10/09 07:33:30;;;;;;;28.75;18.85;;;;;;;12.91;75.21;93332.66;2051478;70;20165;-74
2022/10/09 07:35:58;;;;;;;16.48;9.77;;;;;;;12.64;76.32;93332.34;2051654;70;20158;-75
2022/10/09 07:38:24;;;;;;;13.98;9.10;;;;;;;13.01;73.11;93335.38;2051354;70;20243;-76
2022/10/09 07:40:53;;;;;;;12.88;8.18;;;;;;;13.10;73.61;93343.03;2051417;70;20205;-77
2022/10/09 07:43:20;;;;;;;11.82;6.82;;;;;;;12.82;74.99;93338.41;2051472;70;20134;-77
2022/10/09 07:45:45;;;;;;;12.82;7.15;;;;;;;13.00;74.10;93339.56;2051494;70;20596;-77
2022/10/09 07:48:11;;;;;;;11.40;6.88;;;;;;;12.83;74.52;93340.66;2051409;70;20672;-74
2022/10/09 07:50:37;;;;;;;12.40;6.78;;;;;;;12.98;73.93;93345.81;2051384;70;20602;-75
2022/10/09 07:53:03;;;;;;;14.27;7.15;;;;;;;13.20;71.56;93351.41;2051391;70;20131;-75
2022/10/09 07:55:28;;;;;;;14.32;7.32;;;;;;;13.36;70.72;93351.66;2051414;70;20152;-76
2022/10/09 07:57:54;;;;;;;13.38;6.78;;;;;;;13.37;70.99;93353.13;2051299;70;20583;-76
2022/10/09 08:00:19;;;;;;;15.15;6.88;;;;;;;13.39;70.27;93345.53;2051273;70;20145;-76
2022/10/09 08:02:45;;;;;;;12.13;7.80;;;;;;;13.42;71.15;93355.63;2051531;70;20150;-77
2022/10/09 08:05:10;;;;;;;12.73;7.45;;;;;;;13.44;70.31;93352.91;2050649;70;20198;-77
2022/10/09 08:07:36;;;;;;;15.15;7.53;;;;;;;13.43;69.52;93348.59;2051514;70;20502;-77
2022/10/09 08:10:03;;;;;;;11.13;7.10;;;;;;;13.47;68.17;93354.50;2051289;70;20151;-77
2022/10/09 08:12:28;;;;;;;10.88;7.45;;;;;;;13.50;69.02;93352.53;2051388;70;20475;-77
2022/10/09 08:14:54;;;;;;;11.55;6.97;;;;;;;13.53;68.26;93351.31;2051266;70;20623;-76
2022/10/09 08:17:19;;;;;;;15.80;7.47;;;;;;;13.60;68.41;93353.13;2051554;70;20142;-77
2022/10/09 08:19:45;;;;;;;18.60;7.05;;;;;;;13.55;70.13;93347.84;2051518;70;20626;-74
2022/10/09 08:22:11;;;;;;;13.20;8.15;;;;;;;13.54;68.95;93349.19;2051302;70;20602;-74
2022/10/09 08:24:37;;;;;;;13.57;7.25;;;;;;;13.63;67.80;93348.34;2051323;70;20146;-77
2022/10/09 08:27:03;;;;;;;11.63;6.97;;;;;;;13.62;68.72;93346.88;2051288;70;20486;-74
2022/10/09 08:29:29;;;;;;;16.63;9.30;;;;;;;13.31;71.41;93342.19;2053518;70;20601;-77
2022/10/09 08:31:54;;;;;;;14.55;8.60;;;;;;;13.34;71.34;93351.56;2051194;69;20327;-77
2022/10/09 08:34:20;;;;;;;16.98;8.02;;;;;;;13.58;69.31;93350.19;2051287;70;20138;-76
2022/10/09 08:36:45;;;;;;;17.45;9.10;;;;;;;13.57;70.08;93343.06;2051267;70;20161;-76
2022/10/09 08:39:11;;;;;;;14.63;8.13;;;;;;;13.61;69.88;93348.22;2051321;70;20147;-75
2022/10/09 08:41:49;;;;;;;14.85;8.63;;;;;;;13.59;68.14;93351.66;2051381;70;20182;-76
2022/10/09 08:44:41;;;;;;;39.25;21.85;;;;;;;13.56;69.91;93354.97;2051390;70;20161;-76
2022/10/09 08:47:24;;;;;;;35.50;21.67;;;;;;;13.56;70.08;93357.81;2051212;70;20193;-77
2022/10/09 08:50:04;;;;;;;22.73;13.80;;;;;;;13.54;68.44;93354.84;2051465;70;20589;-75
2022/10/09 08:52:41;;;;;;;18.15;10.40;;;;;;;13.11;72.29;93355.81;2051213;70;20586;-75
2022/10/09 08:55:26;;;;;;;19.30;11.40;;;;;;;13.39;70.66;93350.44;2051419;70;20169;-76
2022/10/09 08:57:54;;;;;;;20.80;11.98;;;;;;;13.54;70.05;93357.69;2051320;70;20649;-77
2022/10/09 09:00:39;;;;;;;24.42;12.75;;;;;;;13.46;70.61;93360.75;2051150;70;20138;-77
2022/10/09 09:03:32;;;;;;;35.30;15.93;;;;;;;13.49;70.59;93359.53;2050791;70;20634;-77
2022/10/09 09:06:11;;;;;;;21.95;11.00;;;;;;;13.44;70.51;93358.56;2050759;70;20218;-76
2022/10/09 09:08:57;;;;;;;15.45;8.85;;;;;;;13.10;72.07;93357.16;2053516;70;20139;-76
2022/10/09 09:11:56;;;;;;;18.25;9.18;;;;;;;13.57;69.95;93359.28;2051201;70;20158;-75
2022/10/09 09:15:04;;;;;;;35.55;17.90;;;;;;;13.66;70.17;93361.25;2048640;70;20680;-76
2022/10/09 09:17:36;;;;;;;22.63;12.40;;;;;;;13.71;69.21;93349.56;2049078;70;20151;-77
2022/10/09 09:20:25;;;;;;;21.52;12.95;;;;;;;13.83;67.64;93349.53;2051356;70;20551;-76
2022/10/09 09:22:50;;;;;;;17.17;10.73;;;;;;;13.84;68.76;93351.03;2051379;70;20203;-77
2022/10/09 09:25:18;;;;;;;17.95;11.48;;;;;;;13.49;71.26;93351.06;2051303;70;20568;-74
2022/10/09 09:27:44;;;;;;;17.13;11.93;;;;;;;13.18;73.00;93346.34;2051190;70;20668;-75
2022/10/09 09:30:19;;;;;;;19.52;11.13;;;;;;;13.72;70.75;93341.81;2051035;70;20233;-75
2022/10/09 09:33:00;;;;;;;20.85;11.15;;;;;;;13.68;71.31;93347.97;2051276;70;20146;-76
2022/10/09 09:35:45;;;;;;;15.02;9.60;;;;;;;13.81;70.31;93340.19;2051294;70;20226;-76
2022/10/09 09:38:12;;;;;;;15.43;9.63;;;;;;;13.99;67.12;93333.50;2051222;70;20305;-77
2022/10/09 09:40:38;;;;;;;16.10;9.60;;;;;;;13.99;68.48;93327.84;2051143;70;20143;-76
2022/10/09 09:43:19;;;;;;;17.98;9.35;;;;;;;13.89;68.15;93337.84;2051203;70;20238;-76
2022/10/09 09:45:46;;;;;;;15.95;9.77;;;;;;;13.58;70.41;93338.88;2051018;70;20146;-77
2022/10/09 09:48:17;;;;;;;12.10;8.48;;;;;;;13.85;68.75;93334.78;2051118;70;20170;-77
2022/10/09 09:50:43;;;;;;;14.15;8.15;;;;;;;13.98;67.92;93329.22;2050258;70;20571;-77
2022/10/09 09:53:33;;;;;;;13.63;9.02;;;;;;;14.07;68.66;93332.53;2047527;70;20154;-76
2022/10/09 09:55:58;;;;;;;26.27;14.48;;;;;;;13.52;71.95;93327.19;2047511;70;20141;-76
2022/10/09 09:58:37;;;;;;;17.10;10.00;;;;;;;13.70;70.92;93322.63;2047430;70;20143;-77
2022/10/09 10:01:05;;;;;;;25.02;13.05;;;;;;;13.46;71.96;93321.91;2047560;70;20143;-77
2022/10/09 10:03:33;;;;;;;18.15;11.65;;;;;;;13.80;70.01;93321.75;2047518;70;20237;-77
2022/10/09 10:05:58;;;;;;;16.95;11.60;;;;;;;13.79;70.60;93321.00;2047703;70;20212;-76
2022/10/09 10:08:26;;;;;;;17.23;10.15;;;;;;;13.86;68.99;93325.66;2047698;70;20179;-77
2022/10/09 10:10:54;;;;;;;15.23;10.25;;;;;;;13.65;71.42;93320.16;2047618;70;20218;-76
2022/10/09 10:13:33;;;;;;;13.45;9.10;;;;;;;13.66;71.39;93322.38;2047553;70;20218;-77
2022/10/09 10:16:00;;;;;;;15.43;9.82;;;;;;;13.87;70.03;93317.91;2047583;70;20222;-76
2022/10/09 10:18:28;;;;;;;18.15;10.38;;;;;;;13.83;70.57;93312.75;2047551;70;20210;-77
2022/10/09 10:21:11;;;;;;;16.38;10.15;;;;;;;13.81;70.58;93311.91;2047587;70;20147;-76
2022/10/09 10:23:39;;;;;;;;;;;;;;;14.13;68.21;93313.78;2047645;70;20174;-76
2022/10/09 10:26:23;;;;;;;17.92;9.95;;;;;;;14.34;68.00;93307.19;2046972;70;20123;-76
2022/10/09 10:28:55;;;;;;;15.27;9.63;;;;;;;14.26;67.37;93306.72;2049137;70;20174;-76
2022/10/09 10:32:12;;;;;;;16.50;9.57;;;;;;;14.53;69.16;93308.25;2050635;70;20613;-75
2022/10/09 10:34:37;;;;;;;12.85;8.80;;;;;;;14.62;65.40;93299.56;2037010;70;20231;-74
2022/10/09 10:37:15;;;;;;;17.45;9.63;;;;;;;14.78;66.88;93291.19;2037308;70;20167;-74
2022/10/09 10:39:48;;;;;;;14.38;8.95;;;;;;;14.43;68.68;93300.63;2037502;70;20136;-76
2022/10/09 10:42:21;;;;;;;16.05;8.40;;;;;;;14.02;70.82;93296.81;2036652;70;20588;-74
2022/10/09 10:45:03;;;;;;;14.40;8.07;;;;;;;14.90;66.77;93302.47;2036859;70;20309;-77
2022/10/09 10:47:34;;;;;;;15.57;8.85;;;;;;;14.22;70.67;93301.56;2037116;70;20138;-76
2022/10/09 10:50:00;;;;;;;16.33;9.40;;;;;;;14.84;68.95;93291.53;2037454;70;20278;-77
2022/10/09 10:52:46;;;;;;;13.48;8.43;;;;;;;15.15;67.51;93290.34;2037292;70;20156;-77
2022/10/09 10:55:21;;;;;;;18.67;11.88;;;;;;;15.07;67.15;93281.38;2037138;70;20587;-75
2022/10/09 10:58:06;;;;;;;12.70;9.15;;;;;;;15.54;63.84;93278.91;2037140;70;20187;-76
2022/10/09 11:00:41;;;;;;;12.77;8.63;;;;;;;15.78;64.41;93278.72;2037732;70;20230;-75
2022/10/09 11:03:28;;;;;;;12.05;7.30;;;;;;;15.36;64.50;93266.63;2038050;70;20163;-77
2022/10/09 11:06:14;;;;;;;13.57;6.65;;;;;;;15.54;63.83;93269.69;2037436;70;20138;-77
2022/10/09 11:08:52;;;;;;;10.52;6.15;;;;;;;15.29;64.26;93267.66;2034566;70;20206;-78
2022/10/09 11:11:36;;;;;;;10.45;6.13;;;;;;;15.99;61.79;93261.34;2051637;70;20211;-76
2022/10/09 11:14:18;;;;;;;9.85;7.50;;;;;;;15.97;62.56;93252.69;2051564;70;20256;-77
2022/10/09 11:17:12;;;;;;;10.10;6.60;;;;;;;15.13;66.28;93256.94;2051505;69;20130;-78
2022/10/09 11:20:06;;;;;;;10.82;6.32;;;;;;;15.47;65.08;93260.81;2051563;69;20177;-77
2022/10/09 11:22:40;;;;;;;10.73;6.38;;;;;;;15.30;64.57;93249.28;2051742;70;20586;-77
2022/10/09 11:25:21;;;;;;;8.18;6.15;;;;;;;15.64;62.93;93247.50;2051578;70;20581;-77
2022/10/09 11:28:10;;;;;;;8.93;6.32;;;;;;;15.89;62.09;93249.47;2051729;70;20154;-78
2022/10/09 11:30:52;;;;;;;9.60;6.00;;;;;;;15.80;62.37;93239.78;2051513;70;20134;-77
2022/10/09 11:33:30;;;;;;;8.15;5.70;;;;;;;15.85;62.80;93246.41;2051954;70;20147;-76
2022/10/09 11:36:15;;;;;;;9.07;6.40;;;;;;;15.86;63.01;93242.97;2048451;70;20553;-75
2022/10/09 11:39:14;;;;;;;7.85;5.50;;;;;;;16.02;62.86;93232.38;2051914;70;20166;-76
2022/10/09 11:41:46;;;;;;;7.78;4.63;;;;;;;15.79;62.51;93223.41;2051330;70;20675;-76
2022/10/09 11:44:22;;;;;;;5.18;3.85;;;;;;;16.14;61.69;93226.56;2051807;69;20142;-76